Time;durP1;ratioP1;P1;durP2;ratioP2;P2;SDS_P1;SDS_P2;PMS_P1;PMS_P2;Temp;Humidity;BMP_temperature;BMP_pressure;BME280_temperature;BME280_humidity;BME280_pressure;Samples;Min_cycle;Max_cycle;Signal;HPM_P1;HPM_P2
2021/12/06 00:00:13;;;;;;;;;58.00;44.60;;;;;9.91;48.92;97813.97;6130178;28;96821;-70
2021/12/06 00:03:20;;;;;;;;;60.00;45.00;;;;;9.88;49.02;97809.03;6121399;28;97475;-71
2021/12/06 00:06:27;;;;;;;;;57.00;44.00;;;;;9.81;49.02;97811.09;6126177;28;98955;-71
2021/12/06 00:09:31;;;;;;;;;55.00;44.00;;;;;9.74;49.11;97800.47;6127624;28;97664;-69
2021/12/06 00:12:36;;;;;;;;;58.50;46.00;;;;;9.72;49.07;97807.16;6116467;28;98591;-69
2021/12/06 00:15:40;;;;;;;;;59.00;46.00;;;;;9.67;49.25;97817.84;6130691;28;97420;-69
2021/12/06 00:18:43;;;;;;;;;60.00;46.00;;;;;9.56;49.24;97820.34;6133571;28;97439;-71
2021/12/06 00:21:46;;;;;;;;;63.60;48.40;;;;;9.51;49.32;97820.25;6121428;28;98696;-70
2021/12/06 00:24:51;;;;;;;;;62.67;49.67;;;;;9.48;49.41;97825.31;6132541;28;97220;-69
2021/12/06 00:27:55;;;;;;;;;61.00;47.60;;;;;9.29;49.70;97813.06;6127448;28;97900;-71
2021/12/06 00:30:59;;;;;;;;;60.80;47.20;;;;;9.37;49.62;97805.44;6124132;28;96874;-71
2021/12/06 00:34:07;;;;;;;;;58.00;45.50;;;;;9.35;49.59;97812.94;6122434;28;99622;-70
2021/12/06 00:37:17;;;;;;;;;58.00;46.40;;;;;9.32;49.62;97817.97;6127841;28;98517;-71
2021/12/06 00:40:23;;;;;;;;;56.50;44.00;;;;;9.31;49.61;97816.34;6127271;28;98501;-69
2021/12/06 00:43:28;;;;;;;;;58.00;46.00;;;;;9.29;49.44;97810.38;6114642;28;97800;-70
2021/12/06 00:46:31;;;;;;;;;58.00;45.80;;;;;9.25;49.65;97812.72;6095282;28;97488;-71
2021/12/06 00:49:35;;;;;;;;;60.40;46.00;;;;;9.20;49.75;97812.63;6111096;28;98093;-68
2021/12/06 00:52:39;;;;;;;;;61.00;44.40;;;;;9.14;49.93;97818.97;6101353;28;98033;-70
2021/12/06 00:55:42;;;;;;;;;58.80;45.00;;;;;9.14;49.80;97810.91;6112356;28;97511;-68
2021/12/06 00:58:49;;;;;;;;;58.50;46.00;;;;;9.14;49.78;97811.72;6111170;28;97458;-69
2021/12/06 01:01:54;;;;;;;;;59.00;46.33;;;;;8.91;49.82;97776.84;6124518;28;98388;-68
2021/12/06 01:04:57;;;;;;;;;59.60;46.00;;;;;9.11;49.90;97801.44;6108457;28;97964;-68
2021/12/06 01:08:01;;;;;;;;;57.00;45.50;;;;;9.13;49.84;97803.91;6111497;28;98089;-70
2021/12/06 01:11:05;;;;;;;;;54.50;44.00;;;;;9.11;49.87;97806.00;6125693;28;98057;-68
2021/12/06 01:14:10;;;;;;;;;55.40;44.00;;;;;9.04;50.04;97810.72;6105706;28;98408;-68
2021/12/06 01:17:14;;;;;;;;;57.80;45.00;;;;;9.02;50.00;97821.69;6112708;28;97762;-68
2021/12/06 01:20:23;;;;;;;;;56.00;44.50;;;;;9.01;50.02;97835.38;6110347;28;98076;-69
2021/12/06 01:23:40;;;;;;;;;55.60;44.00;;;;;9.01;50.11;97838.06;6101358;28;97459;-72
2021/12/06 01:30:20;;;;;;;;;56.00;44.00;;;;;8.95;50.10;97817.50;6107196;28;98345;-69
2021/12/06 01:40:19;;;;;;;;;60.60;45.80;;;;;8.91;50.20;97803.72;6054126;28;101267;-71
2021/12/06 01:43:23;;;;;;;;;61.00;46.40;;;;;8.95;50.14;97796.00;6071744;28;97981;-67
2021/12/06 01:46:28;;;;;;;;;61.00;48.00;;;;;8.93;50.09;97787.38;6085466;28;97771;-69
2021/12/06 01:49:34;;;;;;;;;56.40;46.00;;;;;8.92;50.13;97791.09;6085705;28;98584;-70
2021/12/06 01:52:41;;;;;;;;;64.20;47.80;;;;;8.93;50.13;97788.19;6086275;28;98018;-70
2021/12/06 01:55:45;;;;;;;;;57.80;46.20;;;;;8.95;50.08;97798.69;6061171;28;99522;-69
2021/12/06 01:58:48;;;;;;;;;60.00;46.40;;;;;8.93;50.14;97795.44;6083911;28;97587;-70
2021/12/06 02:01:54;;;;;;;;;60.60;45.60;;;;;8.92;50.20;97801.84;6077771;28;98812;-68
2021/12/06 02:04:58;;;;;;;;;57.60;45.80;;;;;8.90;50.28;97807.44;6062546;28;99800;-70
2021/12/06 02:08:04;;;;;;;;;55.00;45.00;;;;;8.90;50.27;97801.25;6082049;28;98098;-71
2021/12/06 02:11:08;;;;;;;;;59.20;46.00;;;;;8.83;50.47;97805.97;6065727;28;98485;-69
2021/12/06 02:14:31;;;;;;;;;57.00;45.00;;;;;8.81;50.43;97810.75;6070476;28;98910;-69
2021/12/06 02:17:40;;;;;;;;;57.00;45.40;;;;;8.77;50.66;97821.16;6137354;28;98625;-70
2021/12/06 02:20:49;;;;;;;;;55.40;44.40;;;;;8.71;50.59;97819.41;6159889;28;97174;-68
2021/12/06 02:23:55;;;;;;;;;56.00;44.40;;;;;8.73;50.65;97824.56;6151560;28;98688;-68
2021/12/06 02:26:59;;;;;;;;;56.60;45.00;;;;;8.69;50.62;97830.41;6112486;28;98744;-68
2021/12/06 02:30:06;;;;;;;;;58.00;45.00;;;;;8.67;50.78;97827.13;6156329;28;99128;-68
2021/12/06 02:33:11;;;;;;;;;55.00;44.00;;;;;8.45;50.83;97788.50;6109518;28;97775;-71
2021/12/06 02:36:14;;;;;;;;;58.25;46.00;;;;;8.66;50.80;97820.13;6143445;28;97946;-70
2021/12/06 02:39:23;;;;;;;;;56.40;45.00;;;;;8.69;50.89;97813.47;6143258;28;98615;-70
2021/12/06 02:42:27;;;;;;;;;57.50;43.75;;;;;8.73;50.89;97808.44;6131023;28;98387;-70
2021/12/06 02:45:31;;;;;;;;;54.60;43.60;;;;;8.74;50.80;97816.25;6128276;28;98212;-71
2021/12/06 02:48:35;;;;;;;;;58.50;45.75;;;;;8.79;50.70;97829.00;6110994;28;97845;-68
2021/12/06 02:51:39;;;;;;;;;56.40;46.00;;;;;8.79;50.81;97835.19;6123555;28;96906;-71
2021/12/06 02:54:44;;;;;;;;;58.40;45.00;;;;;8.78;50.87;97843.47;6141956;28;97280;-68
2021/12/06 02:57:54;;;;;;;;;56.00;44.80;;;;;8.79;50.68;97842.44;6131523;28;97501;-70
2021/12/06 03:01:00;;;;;;;;;55.75;44.00;;;;;8.75;50.69;97830.53;6128039;28;97962;-69
2021/12/06 03:04:05;;;;;;;;;55.60;44.00;;;;;8.83;50.72;97835.53;6131659;28;98812;-68
2021/12/06 03:07:11;;;;;;;;;57.80;45.00;;;;;8.82;50.75;97823.13;6127400;28;97369;-70
2021/12/06 03:10:18;;;;;;;;;57.00;44.00;;;;;8.85;50.60;97822.66;6129886;28;97620;-68
2021/12/06 03:13:21;;;;;;;;;53.00;44.00;;;;;8.85;50.50;97820.78;6119992;28;97970;-68
2021/12/06 03:16:25;;;;;;;;;57.67;44.00;;;;;8.84;50.63;97819.16;6129282;28;97983;-68
2021/12/06 03:19:30;;;;;;;;;53.00;43.25;;;;;8.86;50.44;97824.28;6130244;28;96852;-69
2021/12/06 03:22:34;;;;;;;;;56.40;44.40;;;;;8.88;50.60;97816.81;6100298;28;98647;-70
2021/12/06 03:25:39;;;;;;;;;60.25;45.25;;;;;8.87;50.50;97813.31;6128927;28;99115;-69
2021/12/06 03:28:45;;;;;;;;;58.20;46.00;;;;;8.89;50.66;97815.78;6144956;28;98935;-70
2021/12/06 03:31:51;;;;;;;;;60.00;46.00;;;;;8.92;50.62;97801.84;6121696;28;97344;-70
2021/12/06 03:34:55;;;;;;;;;58.00;45.00;;;;;8.95;50.46;97796.81;6128095;28;97206;-70
2021/12/06 03:37:58;;;;;;;;;60.67;47.00;;;;;8.97;50.64;97788.50;6141926;28;97369;-70
2021/12/06 03:41:05;;;;;;;;;57.60;46.00;;;;;8.94;50.64;97797.06;6102198;28;98855;-69
2021/12/06 03:44:08;;;;;;;;;59.60;46.00;;;;;9.00;50.63;97801.47;6139255;28;98066;-70
2021/12/06 03:47:16;;;;;;;;;63.60;48.60;;;;;8.98;50.46;97803.59;6129107;28;97994;-69
2021/12/06 03:50:21;;;;;;;;;62.60;48.00;;;;;9.00;50.68;97807.66;6128427;28;98943;-70
2021/12/06 03:53:27;;;;;;;;;61.50;48.00;;;;;8.98;50.63;97807.09;6131853;28;98401;-70
2021/12/06 03:56:32;;;;;;;;;67.00;50.25;;;;;8.99;50.51;97803.34;6098229;28;97870;-68
2021/12/06 03:59:36;;;;;;;;;65.00;50.00;;;;;8.99;50.64;97795.28;6128501;28;97869;-70
2021/12/06 04:02:41;;;;;;;;;60.20;48.00;;;;;9.03;50.61;97801.00;6116346;28;98499;-70
2021/12/06 04:05:47;;;;;;;;;61.80;48.00;;;;;9.06;50.40;97805.91;6128720;28;97460;-70
2021/12/06 04:08:52;;;;;;;;;64.20;49.00;;;;;9.07;50.42;97804.84;6113030;28;98304;-71
2021/12/06 04:11:58;;;;;;;;;64.60;49.60;;;;;9.06;50.46;97795.97;6104831;28;97416;-71
2021/12/06 04:15:02;;;;;;;;;64.00;49.00;;;;;9.10;50.44;97812.44;6122706;28;98334;-71
2021/12/06 04:18:06;;;;;;;;;64.50;49.50;;;;;9.06;50.49;97835.47;6128156;28;98377;-70
2021/12/06 04:21:10;;;;;;;;;64.00;49.00;;;;;9.04;50.36;97834.91;6123735;28;96896;-69
2021/12/06 04:24:15;;;;;;;;;63.20;48.60;;;;;8.99;50.49;97814.09;6121494;28;98067;-70
2021/12/06 04:27:21;;;;;;;;;62.00;48.00;;;;;9.03;50.66;97812.59;6129907;28;97235;-70
2021/12/06 04:30:26;;;;;;;;;64.40;49.40;;;;;9.00;50.49;97845.28;6126518;28;98878;-70
2021/12/06 04:33:31;;;;;;;;;65.00;50.00;;;;;9.02;50.72;97862.03;6098960;28;98365;-68
2021/12/06 04:36:35;;;;;;;;;63.75;49.75;;;;;8.98;50.60;97852.81;6128640;28;98878;-70
2021/12/06 04:39:40;;;;;;;;;67.00;51.00;;;;;9.00;50.60;97864.13;6142728;28;97748;-70
2021/12/06 04:42:45;;;;;;;;;66.00;50.00;;;;;8.99;50.63;97840.19;6118626;28;97434;-69
2021/12/06 04:45:48;;;;;;;;;68.80;51.80;;;;;8.99;50.76;97829.44;6141377;28;96929;-69
2021/12/06 04:48:52;;;;;;;;;70.00;51.00;;;;;9.01;50.73;97857.69;6128254;28;97752;-70
2021/12/06 04:52:00;;;;;;;;;66.75;51.50;;;;;9.03;50.68;97860.97;6118087;28;98137;-70
2021/12/06 04:55:12;;;;;;;;;65.50;50.25;;;;;9.02;50.60;97856.66;6109314;28;97805;-69
2021/12/06 04:58:19;;;;;;;;;69.20;51.00;;;;;8.95;50.68;97841.69;6106755;28;99181;-69
2021/12/06 05:01:28;;;;;;;;;66.40;51.00;;;;;9.05;50.68;97858.84;6122116;28;98579;-65
2021/12/06 05:04:36;;;;;;;;;67.50;52.00;;;;;9.08;50.70;97873.69;6126011;28;100327;-68
2021/12/06 05:07:44;;;;;;;;;68.60;52.00;;;;;9.11;50.64;97878.59;6103994;28;97478;-67
2021/12/06 05:10:50;;;;;;;;;67.00;51.00;;;;;9.07;50.72;97869.38;6116386;28;97841;-66
2021/12/06 05:14:00;;;;;;;;;64.60;50.00;;;;;8.97;50.72;97869.16;6115495;28;97980;-67
2021/12/06 05:17:05;;;;;;;;;66.20;50.00;;;;;9.03;50.83;97887.84;6127173;28;98229;-66
2021/12/06 05:20:12;;;;;;;;;67.40;51.00;;;;;8.96;50.75;97889.84;6112358;28;97517;-65
2021/12/06 05:23:20;;;;;;;;;66.00;50.75;;;;;8.93;50.86;97892.19;6116566;28;100307;-65
2021/12/06 05:26:23;;;;;;;;;67.20;50.00;;;;;8.89;51.16;97899.09;6129160;28;98165;-65
2021/12/06 05:29:30;;;;;;;;;67.80;51.00;;;;;8.83;51.29;97906.22;6127970;28;97912;-68
2021/12/06 05:32:35;;;;;;;;;68.75;52.25;;;;;8.85;51.17;97903.28;6111826;28;99241;-65
2021/12/06 05:35:38;;;;;;;;;67.60;52.00;;;;;8.85;51.37;97904.09;6130056;28;98085;-65
2021/12/06 05:38:43;;;;;;;;;67.60;51.80;;;;;8.88;51.24;97905.50;6124666;28;97167;-65
2021/12/06 05:41:47;;;;;;;;;67.00;50.25;;;;;8.88;51.25;97903.66;6126692;28;97988;-67
2021/12/06 05:44:52;;;;;;;;;63.60;50.00;;;;;8.94;51.21;97901.91;6129190;28;97192;-66
2021/12/06 05:47:56;;;;;;;;;66.60;50.80;;;;;9.01;51.14;97902.56;6132220;28;97856;-68
2021/12/06 05:50:59;;;;;;;;;67.00;51.00;;;;;9.08;51.07;97903.28;6130626;28;97395;-65
2021/12/06 05:54:03;;;;;;;;;67.20;51.00;;;;;9.14;50.97;97899.63;6112776;28;97598;-65
2021/12/06 05:57:09;;;;;;;;;68.40;52.00;;;;;9.16;50.77;97894.84;6134030;28;96677;-67
2021/12/06 06:00:17;;;;;;;;;68.00;52.00;;;;;9.22;50.82;97906.53;6135019;28;97425;-67
2021/12/06 06:03:21;;;;;;;;;69.60;51.00;;;;;9.29;50.45;97904.50;6124455;28;97792;-65
2021/12/06 06:06:24;;;;;;;;;67.25;50.25;;;;;9.30;50.57;97903.47;6136104;28;97300;-65
2021/12/06 06:09:28;;;;;;;;;68.00;51.00;;;;;9.29;50.58;97905.31;6135744;28;97378;-65
2021/12/06 06:12:31;;;;;;;;;68.50;51.00;;;;;9.32;50.62;97901.34;6138242;28;97500;-67
2021/12/06 06:15:36;;;;;;;;;66.00;50.00;;;;;9.35;50.47;97906.25;6142999;28;97021;-68
2021/12/06 06:18:39;;;;;;;;;69.00;51.60;;;;;9.37;50.54;97907.66;6134288;28;97767;-65
2021/12/06 06:21:43;;;;;;;;;68.20;52.00;;;;;9.35;50.50;97915.16;6132334;28;99061;-67
2021/12/06 06:24:46;;;;;;;;;72.20;53.00;;;;;9.36;50.43;97922.16;6135716;28;97542;-64
2021/12/06 06:27:50;;;;;;;;;70.00;53.00;;;;;9.32;50.56;97918.31;6138578;28;97031;-67
2021/12/06 06:30:55;;;;;;;;;68.00;52.00;;;;;9.32;50.57;97926.38;6117069;28;99613;-65
2021/12/06 06:33:58;;;;;;;;;69.40;52.40;;;;;9.28;50.59;97933.31;6115074;28;96845;-65
2021/12/06 06:37:04;;;;;;;;;70.00;52.00;;;;;9.27;50.62;97939.72;6145757;28;97414;-65
2021/12/06 06:40:09;;;;;;;;;70.00;53.00;;;;;9.27;50.61;97945.09;6137415;28;96725;-67
2021/12/06 06:43:12;;;;;;;;;69.25;52.00;;;;;9.27;50.58;97949.66;6122662;28;98655;-66
2021/12/06 06:46:17;;;;;;;;;69.80;52.20;;;;;9.24;50.66;97952.81;6117464;28;98127;-67
2021/12/06 06:49:21;;;;;;;;;69.80;51.80;;;;;9.25;50.68;97951.75;6116028;28;97190;-65
2021/12/06 06:52:24;;;;;;;;;66.60;51.00;;;;;9.19;50.51;97958.09;6131732;28;96979;-68
2021/12/06 06:55:28;;;;;;;;;71.20;55.20;;;;;9.22;50.51;97960.31;6133835;28;97047;-66
2021/12/06 06:58:31;;;;;;;;;70.40;54.00;;;;;9.22;50.46;97973.75;6137852;28;96587;-67
2021/12/06 07:01:36;;;;;;;;;70.40;53.00;;;;;9.08;50.38;97968.63;6109943;28;98164;-66
2021/12/06 07:04:44;;;;;;;;;69.80;53.00;;;;;9.14;50.53;97981.09;6117225;28;97137;-67
2021/12/06 07:07:47;;;;;;;;;67.40;51.00;;;;;9.17;50.36;97985.22;6117445;28;97330;-67
2021/12/06 07:10:52;;;;;;;;;67.80;51.40;;;;;9.10;50.47;97992.56;6134051;28;98311;-67
2021/12/06 07:13:56;;;;;;;;;67.00;51.00;;;;;9.09;50.49;97993.63;6098313;28;98992;-66
2021/12/06 07:17:00;;;;;;;;;69.60;52.60;;;;;9.09;50.35;97990.94;6120350;28;96799;-67
2021/12/06 07:20:04;;;;;;;;;70.00;53.00;;;;;9.05;50.36;97990.59;6118336;28;97394;-65
2021/12/06 07:23:08;;;;;;;;;68.00;52.00;;;;;8.97;50.44;97979.38;6125534;28;97631;-65
2021/12/06 07:26:13;;;;;;;;;68.40;53.00;;;;;8.98;50.45;97979.16;6101617;28;98125;-66
2021/12/06 07:29:16;;;;;;;;;68.60;52.60;;;;;9.06;50.30;97994.91;6136636;28;97090;-67
2021/12/06 07:32:21;;;;;;;;;67.60;52.00;;;;;9.09;50.39;97996.31;6124369;28;96939;-67
2021/12/06 07:35:26;;;;;;;;;68.80;52.00;;;;;9.09;50.25;97996.31;6136557;28;97991;-65
2021/12/06 07:38:30;;;;;;;;;68.00;52.60;;;;;9.07;50.43;97991.19;6119409;28;97908;-67
2021/12/06 07:41:34;;;;;;;;;69.00;52.00;;;;;9.07;50.38;97990.34;6115753;28;97445;-65
2021/12/06 07:44:37;;;;;;;;;70.00;53.00;;;;;9.07;50.33;97990.34;6128897;28;99233;-67
2021/12/06 07:47:43;;;;;;;;;68.20;51.60;;;;;9.05;50.35;97987.91;6130784;28;98576;-65
2021/12/06 07:50:47;;;;;;;;;73.00;55.00;;;;;9.11;50.25;98002.28;6132141;28;98750;-66
2021/12/06 07:53:52;;;;;;;;;69.40;53.20;;;;;9.08;50.38;98003.56;6130836;28;97760;-68
2021/12/06 07:56:55;;;;;;;;;69.50;52.50;;;;;9.08;50.24;98002.75;6136801;28;97318;-66
2021/12/06 07:59:58;;;;;;;;;69.00;52.40;;;;;9.07;50.33;98003.81;6136418;28;97236;-67
2021/12/06 08:03:05;;;;;;;;;70.40;53.00;;;;;8.87;50.29;97969.19;6119877;28;97030;-65
2021/12/06 08:06:10;;;;;;;;;67.20;51.80;;;;;9.09;50.22;98007.88;6129672;28;98623;-65
2021/12/06 08:09:14;;;;;;;;;66.20;49.20;;;;;9.08;50.27;98008.13;6133534;28;97305;-67
2021/12/06 08:12:23;;;;;;;;;69.80;52.00;;;;;9.09;50.32;98007.06;6126461;28;96891;-66
2021/12/06 08:15:27;;;;;;;;;70.00;53.00;;;;;8.97;50.21;97988.25;6133276;28;97986;-67
2021/12/06 08:18:32;;;;;;;;;70.80;52.00;;;;;9.08;50.25;98008.97;6136335;28;97424;-67
2021/12/06 08:21:36;;;;;;;;;70.00;52.60;;;;;9.10;50.12;98009.53;6129307;28;97434;-65
2021/12/06 08:24:39;;;;;;;;;68.60;53.00;;;;;9.11;50.21;98007.66;6122587;28;98036;-67
2021/12/06 08:27:44;;;;;;;;;68.20;51.20;;;;;9.14;50.19;98012.56;6132440;28;97627;-65
2021/12/06 08:30:48;;;;;;;;;67.00;51.00;;;;;9.14;50.15;98013.38;6135296;28;97549;-66
2021/12/06 08:33:53;;;;;;;;;71.00;53.00;;;;;9.05;50.24;97993.28;6130697;28;99417;-65
2021/12/06 08:36:57;;;;;;;;;70.40;52.00;;;;;9.18;50.10;98018.31;6137515;28;96500;-65
2021/12/06 08:40:00;;;;;;;;;68.80;52.00;;;;;9.20;50.11;98013.50;6128352;28;97430;-67
2021/12/06 08:43:04;;;;;;;;;68.60;52.00;;;;;9.21;50.17;98025.91;6127115;28;97932;-66
2021/12/06 08:46:10;;;;;;;;;71.60;52.00;;;;;9.25;50.03;98011.75;6135516;28;97384;-66
2021/12/06 08:49:15;;;;;;;;;68.40;52.00;;;;;9.10;50.03;98006.84;6098579;28;99087;-65
2021/12/06 08:52:19;;;;;;;;;65.00;51.00;;;;;9.28;50.15;98021.22;6106370;28;97831;-65
2021/12/06 08:55:24;;;;;;;;;70.60;53.00;;;;;9.31;49.85;98026.94;6117418;28;96685;-67
2021/12/06 08:58:27;;;;;;;;;72.00;53.00;;;;;9.30;49.81;98033.38;6134750;28;97483;-66
2021/12/06 09:01:31;;;;;;;;;69.00;53.00;;;;;9.28;49.79;98032.00;6113656;28;97498;-67
2021/12/06 09:04:56;;;;;;;;;69.60;52.60;;;;;9.27;49.92;98035.72;6129669;28;97115;-67
2021/12/06 09:08:00;;;;;;;;;67.00;52.00;;;;;9.31;49.77;98044.97;6135038;28;97788;-67
2021/12/06 09:11:05;;;;;;;;;68.40;51.60;;;;;9.32;49.89;98046.59;6131979;28;98152;-64
2021/12/06 09:14:10;;;;;;;;;72.00;52.60;;;;;9.31;49.89;98044.97;6131373;28;97399;-66
2021/12/06 09:17:14;;;;;;;;;69.20;52.00;;;;;9.32;50.00;98041.22;6099028;28;97395;-66
2021/12/06 09:20:21;;;;;;;;;68.00;52.00;;;;;9.27;49.96;98036.53;6118711;28;97545;-66
2021/12/06 09:23:25;;;;;;;;;69.00;51.60;;;;;9.29;50.38;98045.19;6133278;28;97523;-67
2021/12/06 09:26:29;;;;;;;;;69.00;52.00;;;;;9.29;50.16;98042.50;6136629;28;96638;-66
2021/12/06 09:29:36;;;;;;;;;67.80;51.80;;;;;9.26;50.16;98050.22;6135663;28;97521;-66
2021/12/06 09:32:40;;;;;;;;;69.00;53.00;;;;;9.32;50.11;98049.28;6103325;28;97807;-64
2021/12/06 09:35:48;;;;;;;;;67.20;51.40;;;;;9.31;50.18;98051.16;6136437;28;96554;-67
2021/12/06 09:38:52;;;;;;;;;67.00;51.00;;;;;9.30;50.37;98054.91;6098722;28;98107;-65
2021/12/06 09:41:55;;;;;;;;;70.00;51.60;;;;;9.33;50.14;98054.44;6118756;28;97525;-64
2021/12/06 09:44:58;;;;;;;;;66.75;50.00;;;;;9.23;50.25;98030.00;6127521;28;97185;-66
2021/12/06 09:48:07;;;;;;;;;68.20;52.00;;;;;9.39;50.07;98052.66;6136870;28;97497;-67
2021/12/06 09:51:16;;;;;;;;;67.00;50.75;;;;;9.40;50.09;98044.38;6131281;28;97521;-66
2021/12/06 09:54:21;;;;;;;;;66.40;50.00;;;;;9.41;50.06;98045.19;6137591;28;97353;-65
2021/12/06 09:57:25;;;;;;;;;67.25;51.00;;;;;9.40;50.03;98046.25;6138191;28;96841;-67
2021/12/06 10:00:38;;;;;;;;;64.20;49.20;;;;;9.37;50.21;98049.41;6139610;28;97269;-68
2021/12/06 10:03:46;;;;;;;;;66.60;49.00;;;;;9.39;50.23;98045.41;6134688;28;97121;-67
2021/12/06 10:06:52;;;;;;;;;65.50;48.00;;;;;9.34;50.19;98044.47;6139824;28;97327;-66
2021/12/06 10:09:57;;;;;;;;;66.40;50.00;;;;;9.23;50.48;98034.56;6141046;28;96913;-66
2021/12/06 10:13:01;;;;;;;;;66.00;50.00;;;;;9.30;50.54;98046.00;6137919;28;96836;-67
2021/12/06 10:16:06;;;;;;;;;65.20;48.80;;;;;9.32;50.54;98036.66;6137332;28;97460;-68
2021/12/06 10:19:09;;;;;;;;;68.00;50.50;;;;;9.40;50.46;98033.59;6139020;28;97493;-67
2021/12/06 10:22:15;;;;;;;;;66.40;49.80;;;;;9.40;50.35;98035.47;6129256;28;96734;-68
2021/12/06 10:25:19;;;;;;;;;66.00;49.75;;;;;9.45;50.41;98038.28;6139018;28;97360;-68
2021/12/06 10:28:48;;;;;;;;;61.00;46.25;;;;;9.46;50.37;98030.00;6141210;28;96848;-66
2021/12/06 10:31:54;;;;;;;;;63.40;47.00;;;;;9.52;50.48;98036.31;6130144;28;97220;-68
2021/12/06 10:35:05;;;;;;;;;61.00;46.00;;;;;9.56;50.53;98032.09;6140911;28;96700;-67
2021/12/06 10:38:11;;;;;;;;;60.40;44.80;;;;;9.59;50.45;98034.28;6140497;28;97811;-66
2021/12/06 10:41:18;;;;;;;;;57.00;42.60;;;;;9.61;50.13;98037.56;6138776;28;96747;-67
2021/12/06 10:44:22;;;;;;;;;55.50;43.75;;;;;9.66;50.26;98037.69;6134831;28;98030;-68
2021/12/06 10:47:26;;;;;;;;;54.00;43.00;;;;;9.73;50.09;98045.63;6139627;28;96455;-68
2021/12/06 10:50:29;;;;;;;;;53.00;41.40;;;;;9.70;50.03;98046.09;6139811;28;97658;-69
2021/12/06 10:53:40;;;;;;;;;51.20;40.00;;;;;9.64;50.10;98039.78;6128095;28;98358;-65
2021/12/06 10:56:47;;;;;;;;;49.00;39.00;;;;;9.62;50.22;98041.91;6139616;28;97201;-68
2021/12/06 10:59:50;;;;;;;;;49.40;38.00;;;;;9.62;50.15;98047.28;6140471;28;97623;-66
2021/12/06 11:02:54;;;;;;;;;49.00;38.00;;;;;9.65;50.22;98046.81;6129954;28;98193;-66
2021/12/06 11:06:02;;;;;;;;;48.50;38.00;;;;;9.64;50.23;98052.41;6137739;28;97847;-67
2021/12/06 11:09:07;;;;;;;;;47.25;36.00;;;;;9.64;50.31;98049.72;6121941;28;98250;-67
2021/12/06 11:12:17;;;;;;;;;43.40;35.60;;;;;9.65;50.41;98052.19;6117881;28;97281;-67
2021/12/06 11:15:20;;;;;;;;;42.50;35.00;;;;;9.55;50.35;98047.41;6142972;28;96725;-67
2021/12/06 11:18:35;;;;;;;;;45.00;35.00;;;;;9.50;50.15;98049.16;6131932;28;97547;-67
2021/12/06 11:21:43;;;;;;;;;40.00;32.00;;;;;9.53;50.50;98052.19;6135741;28;97263;-68
2021/12/06 11:24:51;;;;;;;;;40.00;34.25;;;;;9.45;50.50;98059.81;6135554;28;98635;-68
2021/12/06 11:27:54;;;;;;;;;39.20;31.80;;;;;9.36;50.64;98058.53;6139851;28;97528;-68
2021/12/06 11:31:00;;;;;;;;;38.00;30.00;;;;;9.33;50.56;98056.31;6117760;28;98751;-67
2021/12/06 11:34:06;;;;;;;;;35.60;31.80;;;;;9.37;50.71;98054.78;6141247;28;97104;-67
2021/12/06 11:37:15;;;;;;;;;37.00;32.00;;;;;9.40;50.43;98060.50;6137386;28;98510;-66
2021/12/06 11:40:22;;;;;;;;;38.20;32.00;;;;;9.40;50.31;98057.81;6136663;28;97483;-67
2021/12/06 11:43:27;;;;;;;;;31.40;28.40;;;;;9.37;50.49;98061.00;6114144;28;100013;-66
2021/12/06 11:46:33;;;;;;;;;35.60;30.60;;;;;9.38;50.52;98062.59;6139598;28;96562;-67
2021/12/06 11:49:41;;;;;;;;;35.60;31.40;;;;;9.31;50.53;98067.28;6117734;28;97904;-67
2021/12/06 11:52:49;;;;;;;;;37.25;32.00;;;;;9.27;50.65;98058.06;6111114;28;96766;-67
2021/12/06 11:55:56;;;;;;;;;32.20;29.00;;;;;9.27;50.58;98060.75;6137877;28;97392;-66
2021/12/06 11:59:03;;;;;;;;;36.60;31.00;;;;;9.27;50.81;98059.94;6121590;28;96836;-68
2021/12/06 12:02:07;;;;;;;;;34.00;30.00;;;;;9.30;50.67;98060.28;6129779;28;97908;-67
2021/12/06 12:05:19;;;;;;;;;39.60;33.00;;;;;9.29;50.75;98055.94;6117909;28;96797;-67
2021/12/06 12:08:22;;;;;;;;;40.60;33.00;;;;;9.32;50.65;98054.66;6118014;28;96611;-67
2021/12/06 12:11:27;;;;;;;;;36.00;32.00;;;;;9.37;50.43;98055.59;6130996;28;96635;-68
2021/12/06 12:14:33;;;;;;;;;37.00;31.60;;;;;9.34;50.39;98060.63;6111262;28;96616;-68
2021/12/06 12:17:39;;;;;;;;;39.33;33.00;;;;;9.34;50.33;98057.94;6112255;28;97146;-67
2021/12/06 12:20:42;;;;;;;;;37.80;32.80;;;;;9.35;50.30;98048.81;6119332;28;96882;-68
2021/12/06 12:23:46;;;;;;;;;38.60;32.80;;;;;9.35;50.45;98057.69;6123797;28;97225;-68
2021/12/06 12:27:00;;;;;;;;;42.00;33.40;;;;;9.37;50.32;98058.31;6137566;28;96674;-67
2021/12/06 12:30:05;;;;;;;;;41.25;33.00;;;;;9.32;50.24;98062.75;6137771;28;96682;-67
2021/12/06 12:33:12;;;;;;;;;42.80;34.20;;;;;9.35;50.13;98070.31;6123421;28;97449;-67
2021/12/06 12:36:19;;;;;;;;;39.60;33.00;;;;;9.35;50.14;98063.09;6120088;28;98538;-68
2021/12/06 12:39:24;;;;;;;;;40.20;33.40;;;;;9.30;50.31;98062.13;6136834;28;97479;-67
2021/12/06 12:42:29;;;;;;;;;39.00;33.00;;;;;9.34;50.17;98057.94;6125451;28;97494;-68
2021/12/06 12:45:34;;;;;;;;;43.20;33.20;;;;;9.32;50.44;98058.19;6142679;28;98365;-67
2021/12/06 12:48:51;;;;;;;;;41.60;35.00;;;;;9.32;50.29;98060.88;6161531;28;96469;-68
2021/12/06 12:51:57;;;;;;;;;40.60;34.60;;;;;9.29;50.32;98055.94;6151064;28;97477;-67
2021/12/06 12:55:00;;;;;;;;;40.00;32.60;;;;;9.30;50.54;98062.13;6157099;28;97404;-68
2021/12/06 12:58:13;;;;;;;;;39.40;32.40;;;;;9.31;50.81;98069.16;6161034;28;97244;-69
2021/12/06 13:01:17;;;;;;;;;40.25;34.00;;;;;9.34;50.38;98076.75;6156145;28;98791;-67
2021/12/06 13:04:22;;;;;;;;;45.40;35.80;;;;;9.32;50.44;98082.38;6151370;28;98778;-67
2021/12/06 13:07:26;;;;;;;;;47.60;38.00;;;;;9.31;50.51;98083.44;6141430;28;96816;-68
2021/12/06 13:10:35;;;;;;;;;45.00;37.00;;;;;9.28;50.62;98086.59;6127114;28;97388;-67
2021/12/06 13:13:45;;;;;;;;;48.75;39.00;;;;;9.25;50.54;98087.03;6133946;28;97233;-68
2021/12/06 13:17:00;;;;;;;;;49.00;39.00;;;;;9.15;50.70;98094.88;6144305;28;97597;-68
2021/12/06 13:20:10;;;;;;;;;51.40;40.00;;;;;9.16;50.91;98085.75;6145822;28;96604;-68
2021/12/06 13:23:14;;;;;;;;;50.40;39.00;;;;;9.21;50.46;98093.94;6126816;28;98583;-67
2021/12/06 13:26:17;;;;;;;;;47.25;39.00;;;;;9.22;50.62;98092.91;6145732;28;96933;-66
2021/12/06 13:29:25;;;;;;;;;50.20;40.00;;;;;9.18;50.90;98107.88;6144090;28;97460;-65
2021/12/06 13:32:55;;;;;;;;;57.00;42.40;;;;;9.17;50.64;98110.78;6153759;28;96563;-67
2021/12/06 13:35:59;;;;;;;;;52.00;41.00;;;;;9.12;50.78;98112.28;6143829;28;98169;-67
2021/12/06 13:39:06;;;;;;;;;52.60;40.60;;;;;9.02;51.11;98114.72;6161540;28;98126;-65
2021/12/06 13:42:13;;;;;;;;;50.80;40.00;;;;;9.00;51.07;98114.13;6149807;28;97398;-67
2021/12/06 13:45:20;;;;;;;;;50.40;40.00;;;;;9.04;51.11;98117.19;6133279;28;97403;-67
2021/12/06 13:48:33;;;;;;;;;49.33;39.00;;;;;9.04;51.08;98123.38;6137820;28;97118;-66
2021/12/06 13:51:48;;;;;;;;;51.50;39.50;;;;;9.00;51.10;98135.63;6123363;28;98327;-66
2021/12/06 13:54:51;;;;;;;;;55.20;42.00;;;;;8.95;51.10;98145.44;6133676;28;97368;-64
2021/12/06 13:57:59;;;;;;;;;53.00;42.00;;;;;8.90;51.38;98145.31;6134169;28;98672;-67
2021/12/06 14:01:05;;;;;;;;;51.00;40.25;;;;;8.92;51.32;98144.03;6125874;28;98248;-63
2021/12/06 14:04:10;;;;;;;;;51.00;40.00;;;;;8.86;51.29;98136.06;6128724;28;98324;-66
2021/12/06 14:07:14;;;;;;;;;54.25;41.00;;;;;9.00;51.32;98157.16;6136635;28;97252;-67
2021/12/06 14:10:17;;;;;;;;;53.00;41.00;;;;;9.06;51.30;98167.00;6136221;28;97258;-66
2021/12/06 14:13:21;;;;;;;;;51.20;40.00;;;;;9.11;51.21;98164.44;6130613;28;96739;-67
2021/12/06 14:16:29;;;;;;;;;53.00;40.40;;;;;9.18;50.90;98177.78;6136267;28;98538;-65
2021/12/06 14:19:33;;;;;;;;;51.20;40.40;;;;;9.25;50.85;98169.59;6136330;28;96702;-65
2021/12/06 14:22:37;;;;;;;;;53.00;42.60;;;;;9.31;50.68;98179.44;6134248;28;97286;-66
2021/12/06 14:25:48;;;;;;;;;53.60;42.00;;;;;9.31;50.45;98182.97;6132935;28;98395;-66
2021/12/06 14:28:51;;;;;;;;;51.60;42.00;;;;;9.26;50.64;98173.94;6119012;28;97079;-67
2021/12/06 14:31:59;;;;;;;;;50.60;40.40;;;;;9.24;50.62;98170.63;6129324;28;96605;-68